createdAt,value
2018-10-02T00:00:36.693Z,100026.00
2018-10-02T00:03:07.206Z,100027.00
2018-10-02T00:05:37.457Z,100026.00
2018-10-02T00:08:07.739Z,100025.00
2018-10-02T00:10:37.978Z,100028.00
2018-10-02T00:13:13.450Z,100029.00
2018-10-02T00:15:43.690Z,100034.00
2018-10-02T00:18:13.937Z,100028.00
2018-10-02T00:20:44.274Z,100032.00
2018-10-02T00:23:14.554Z,100031.00
2018-10-02T00:25:44.845Z,100033.00
2018-10-02T00:28:15.151Z,100025.00
2018-10-02T00:30:45.472Z,100026.00
2018-10-02T00:33:15.759Z,100026.00
2018-10-02T00:35:46.073Z,100024.00
2018-10-02T00:38:16.373Z,100024.00
2018-10-02T00:40:46.753Z,100024.00
2018-10-02T00:43:17.045Z,100034.00
2018-10-02T00:45:47.402Z,100032.00
2018-10-02T00:48:17.694Z,100030.00
2018-10-02T00:50:48.026Z,100028.00
2018-10-02T00:53:18.326Z,100030.00
2018-10-02T00:55:48.641Z,100032.00
2018-10-02T00:58:18.943Z,100034.00
2018-10-02T01:00:49.278Z,100029.00
2018-10-02T01:03:19.547Z,100024.00
2018-10-02T01:05:49.853Z,100028.00
2018-10-02T01:08:20.161Z,100025.00
2018-10-02T01:10:50.482Z,100022.00
2018-10-02T01:13:20.786Z,100023.00
2018-10-02T01:15:51.154Z,100028.00
2018-10-02T01:18:21.446Z,100020.00
2018-10-02T01:20:51.721Z,100028.00
2018-10-02T01:23:21.960Z,100026.00
2018-10-02T01:25:52.226Z,100027.00
2018-10-02T01:28:22.469Z,100028.00
2018-10-02T01:30:52.749Z,100036.00
2018-10-02T01:33:22.978Z,100041.00
2018-10-02T01:35:53.232Z,100036.00
2018-10-02T01:38:23.469Z,100026.00
2018-10-02T01:40:53.727Z,100026.00
2018-10-02T01:43:23.966Z,100022.00
2018-10-02T01:45:54.227Z,100018.00
2018-10-02T01:48:24.494Z,100019.00
2018-10-02T01:50:54.753Z,100011.00
2018-10-02T01:53:24.987Z,100014.00
2018-10-02T01:55:55.242Z,100017.00
2018-10-02T01:58:25.490Z,100018.00
2018-10-02T02:00:55.758Z,100014.00
2018-10-02T02:03:25.994Z,100020.00
2018-10-02T02:05:56.237Z,100018.00
2018-10-02T02:08:26.483Z,100021.00
2018-10-02T02:10:56.721Z,100026.00
2018-10-02T02:13:26.983Z,100019.00
2018-10-02T02:15:57.245Z,100026.00
2018-10-02T02:18:27.459Z,100025.00
2018-10-02T02:20:57.807Z,100024.00
2018-10-02T02:23:28.025Z,100023.00
2018-10-02T02:25:58.311Z,100030.00
2018-10-02T02:28:28.545Z,100028.00
2018-10-02T02:30:58.801Z,100024.00
2018-10-02T02:33:29.064Z,100034.00
2018-10-02T02:35:59.314Z,100043.00
2018-10-02T02:38:29.534Z,100045.00
2018-10-02T02:40:59.803Z,100047.00
2018-10-02T02:43:30.071Z,100052.00
2018-10-02T02:46:00.332Z,100052.00
2018-10-02T02:48:35.922Z,100055.00
2018-10-02T02:51:11.547Z,100054.00
2018-10-02T02:53:41.821Z,100048.00
2018-10-02T02:56:12.081Z,100045.00
2018-10-02T02:58:42.309Z,100046.00
2018-10-02T03:01:12.561Z,100043.00
2018-10-02T03:03:42.808Z,100045.00
2018-10-02T03:06:13.064Z,100049.00
2018-10-02T03:08:43.301Z,100051.00
2018-10-02T03:11:13.559Z,100047.00
2018-10-02T03:13:43.781Z,100049.00
2018-10-02T03:16:14.160Z,100049.00
2018-10-02T03:18:44.422Z,100051.00
2018-10-02T03:21:14.757Z,100049.00
2018-10-02T03:23:45.087Z,100053.00
2018-10-02T03:26:15.409Z,100051.00
2018-10-02T03:28:45.707Z,100062.00
2018-10-02T03:31:16.014Z,100056.00
2018-10-02T03:33:46.330Z,100058.00
2018-10-02T03:36:16.649Z,100055.00
2018-10-02T03:38:46.973Z,100052.00
2018-10-02T03:41:17.277Z,100054.00
2018-10-02T03:43:47.583Z,100055.00
2018-10-02T03:46:17.926Z,100056.00
2018-10-02T03:48:48.274Z,100057.00
2018-10-02T03:51:18.585Z,100059.00
2018-10-02T03:53:48.916Z,100050.00
2018-10-02T03:56:19.283Z,100048.00
2018-10-02T03:58:49.663Z,100048.00
2018-10-02T04:01:20.002Z,100043.00
2018-10-02T04:03:50.321Z,100042.00
2018-10-02T04:06:20.641Z,100037.00
2018-10-02T04:08:50.945Z,100029.00
2018-10-02T04:11:21.296Z,100029.00
2018-10-02T04:13:51.578Z,100032.00
2018-10-02T04:16:21.917Z,100037.00
2018-10-02T04:18:52.222Z,100040.00
2018-10-02T04:21:29.258Z,100038.00
2018-10-02T04:23:59.540Z,100029.00
2018-10-02T04:26:29.861Z,100025.00
2018-10-02T04:29:00.638Z,100036.00
2018-10-02T04:31:31.611Z,100030.00
2018-10-02T04:34:01.957Z,100030.00
2018-10-02T04:36:32.298Z,100026.00
2018-10-02T04:39:02.646Z,100028.00
2018-10-02T04:41:32.967Z,100020.00
2018-10-02T04:44:03.277Z,100025.00
2018-10-02T04:46:33.601Z,100021.00
2018-10-02T04:49:03.918Z,100018.00
2018-10-02T04:51:34.218Z,100025.00
2018-10-02T04:54:04.534Z,100021.00
2018-10-02T04:56:34.826Z,100021.00
2018-10-02T04:59:05.150Z,100017.00
2018-10-02T05:01:35.450Z,100017.00
2018-10-02T05:04:05.805Z,100020.00
2018-10-02T05:06:36.116Z,100024.00
2018-10-02T05:09:08.928Z,100021.00
2018-10-02T05:11:39.224Z,100021.00
2018-10-02T05:14:09.676Z,100020.00
2018-10-02T05:16:39.947Z,100025.00
2018-10-02T05:19:10.298Z,100030.00
2018-10-02T05:21:40.614Z,100026.00
2018-10-02T05:24:10.934Z,100027.00
2018-10-02T05:26:41.235Z,100028.00
2018-10-02T05:29:11.591Z,100033.00
2018-10-02T05:31:41.915Z,100035.00
2018-10-02T05:34:12.227Z,100034.00
2018-10-02T05:36:42.537Z,100036.00
2018-10-02T05:39:12.857Z,100031.00
2018-10-02T05:41:43.254Z,100030.00
2018-10-02T05:44:13.571Z,100029.00
2018-10-02T05:46:43.882Z,100020.00
2018-10-02T05:49:14.204Z,100026.00
2018-10-02T05:51:44.604Z,100034.00
2018-10-02T05:54:14.918Z,100036.00
2018-10-02T05:56:45.218Z,100047.00
2018-10-02T05:59:15.525Z,100042.00
2018-10-02T06:01:46.538Z,100042.00
2018-10-02T06:04:16.855Z,100043.00
2018-10-02T06:06:47.206Z,100042.00
2018-10-02T06:09:17.522Z,100043.00
2018-10-02T06:11:48.537Z,100056.00
2018-10-02T06:14:18.859Z,100054.00
2018-10-02T06:16:49.198Z,100058.00
2018-10-02T06:19:19.543Z,100065.00
2018-10-02T06:21:49.817Z,100063.00
2018-10-02T06:24:20.079Z,100055.00
2018-10-02T06:26:50.318Z,100052.00
2018-10-02T06:29:20.579Z,100047.00
2018-10-02T06:31:50.845Z,100045.00
2018-10-02T06:34:21.099Z,100043.00
2018-10-02T06:36:51.467Z,100044.00
2018-10-02T06:39:21.663Z,100050.00
2018-10-02T06:41:51.923Z,100057.00
2018-10-02T06:44:22.232Z,100054.00
2018-10-02T06:46:52.415Z,100055.00
2018-10-02T06:49:22.677Z,100053.00
2018-10-02T06:51:52.999Z,100053.00
2018-10-02T06:54:23.627Z,100045.00
2018-10-02T06:56:54.396Z,100054.00
2018-10-02T06:59:24.826Z,100059.00
2018-10-02T07:01:55.071Z,100053.00
2018-10-02T07:04:25.974Z,100048.00
2018-10-02T07:06:56.216Z,100039.00
2018-10-02T07:09:26.513Z,100038.00
2018-10-02T07:11:56.745Z,100040.00
2018-10-02T07:14:27.028Z,100048.00
2018-10-02T07:16:57.257Z,100039.00
2018-10-02T07:19:27.774Z,100047.00
2018-10-02T07:21:58.118Z,100046.00
2018-10-02T07:24:28.393Z,100055.00
2018-10-02T07:26:58.737Z,100055.00
2018-10-02T07:29:28.986Z,100055.00
2018-10-02T07:31:59.562Z,100049.00
2018-10-02T07:34:29.817Z,100051.00
2018-10-02T07:37:00.128Z,100054.00
2018-10-02T07:39:30.370Z,100059.00
2018-10-02T07:42:00.679Z,100053.00
2018-10-02T07:44:32.647Z,100048.00
2018-10-02T07:47:03.516Z,100049.00
2018-10-02T07:49:33.832Z,100046.00
2018-10-02T07:52:04.057Z,100049.00
2018-10-02T07:54:34.311Z,100046.00
2018-10-02T07:57:04.656Z,100054.00
2018-10-02T07:59:34.931Z,100049.00
2018-10-02T08:02:05.158Z,100051.00
2018-10-02T08:04:35.422Z,100057.00
2018-10-02T08:07:05.658Z,100054.00
2018-10-02T08:09:35.951Z,100047.00
2018-10-02T08:12:06.232Z,100044.00
2018-10-02T08:14:36.455Z,100041.00
2018-10-02T08:17:06.681Z,100044.00
2018-10-02T08:19:36.945Z,100049.00
2018-10-02T08:22:07.217Z,100053.00
2018-10-02T08:24:37.470Z,100060.00
2018-10-02T08:27:07.778Z,100062.00
2018-10-02T08:29:38.004Z,100060.00
2018-10-02T08:32:08.222Z,100062.00
2018-10-02T08:34:38.486Z,100064.00
2018-10-02T08:37:08.805Z,100069.00
2018-10-02T08:39:39.130Z,100061.00
2018-10-02T08:42:09.441Z,100063.00
2018-10-02T08:44:39.857Z,100058.00
2018-10-02T08:47:10.038Z,100059.00
2018-10-02T08:49:40.585Z,100061.00
2018-10-02T08:52:11.008Z,100061.00
2018-10-02T08:54:41.210Z,100060.00
2018-10-02T08:57:11.514Z,100063.00
2018-10-02T08:59:41.826Z,100063.00
2018-10-02T09:02:12.126Z,100056.00
2018-10-02T09:04:42.469Z,100060.00
2018-10-02T09:07:12.787Z,100060.00
2018-10-02T09:09:43.207Z,100055.00
2018-10-02T09:12:13.510Z,100047.00
2018-10-02T09:14:43.806Z,100050.00
2018-10-02T09:17:14.106Z,100055.00
2018-10-02T09:19:44.451Z,100055.00
2018-10-02T09:22:14.718Z,100057.00
2018-10-02T09:24:45.070Z,100055.00
2018-10-02T09:27:15.357Z,100048.00
2018-10-02T09:29:50.850Z,100041.00
2018-10-02T09:32:26.295Z,100040.00
2018-10-02T09:35:01.739Z,100044.00
2018-10-02T09:37:37.056Z,100039.00
2018-10-02T09:40:12.498Z,100038.00
2018-10-02T09:42:48.081Z,100041.00
2018-10-02T09:45:18.336Z,100038.00
2018-10-02T09:47:48.579Z,100043.00
2018-10-02T09:50:21.826Z,100043.00
2018-10-02T09:52:52.026Z,100034.00
2018-10-02T09:55:22.280Z,100032.00
2018-10-02T09:57:52.521Z,100033.00
2018-10-02T10:00:26.891Z,100025.00
2018-10-02T10:02:57.263Z,100027.00
2018-10-02T10:05:27.454Z,100030.00
2018-10-02T10:07:57.702Z,100038.00
2018-10-02T10:10:28.217Z,100028.00
2018-10-02T10:12:58.480Z,100027.00
2018-10-02T10:15:28.769Z,100035.00
2018-10-02T10:17:59.006Z,100033.00
2018-10-02T10:20:29.347Z,100026.00
2018-10-02T10:22:59.667Z,100026.00
2018-10-02T10:25:29.834Z,100020.00
2018-10-02T10:28:00.075Z,100028.00
2018-10-02T10:30:30.342Z,100029.00
2018-10-02T10:33:00.582Z,100024.00
2018-10-02T10:35:30.850Z,100016.00
2018-10-02T10:38:01.084Z,100014.00
2018-10-02T10:40:31.379Z,100013.00
2018-10-02T10:43:01.607Z,100004.00
2018-10-02T10:45:31.969Z,99996.00
2018-10-02T10:48:02.194Z,99992.00
2018-10-02T10:50:32.465Z,99991.00
2018-10-02T10:53:02.757Z,99977.00
2018-10-02T10:55:34.526Z,99979.00
2018-10-02T10:58:04.775Z,99974.00
2018-10-02T11:00:35.006Z,99975.00
2018-10-02T11:03:05.274Z,99978.00
2018-10-02T11:05:35.521Z,99977.00
2018-10-02T11:08:05.754Z,99981.00
2018-10-02T11:10:35.998Z,99987.00
2018-10-02T11:13:06.266Z,99980.00
2018-10-02T11:15:36.643Z,99977.00
2018-10-02T11:18:06.882Z,99969.00
2018-10-02T11:20:38.130Z,99967.00
2018-10-02T11:23:08.370Z,99971.00
2018-10-02T11:25:38.649Z,99968.00
2018-10-02T11:28:08.882Z,99975.00
2018-10-02T11:30:39.154Z,99968.00
2018-10-02T11:33:09.377Z,99972.00
2018-10-02T11:35:39.639Z,99970.00
2018-10-02T11:38:09.897Z,99975.00
2018-10-02T11:40:40.126Z,99959.00
2018-10-02T11:43:10.421Z,99969.00
2018-10-02T11:45:40.611Z,99966.00
2018-10-02T11:48:10.938Z,99962.00
2018-10-02T11:50:41.174Z,99963.00
2018-10-02T11:53:11.437Z,99961.00
2018-10-02T11:55:41.679Z,99954.00
2018-10-02T11:58:11.944Z,99951.00
2018-10-02T12:00:42.326Z,99950.00
2018-10-02T12:03:12.508Z,99951.00
2018-10-02T12:05:42.701Z,99951.00
2018-10-02T12:08:12.958Z,99947.00
2018-10-02T12:10:43.194Z,99946.00
2018-10-02T12:13:13.506Z,99938.00
2018-10-02T12:15:50.309Z,99945.00
2018-10-02T12:18:20.559Z,99937.00
2018-10-02T12:20:50.846Z,99935.00
2018-10-02T12:23:21.099Z,99933.00
2018-10-02T12:25:51.334Z,99935.00
2018-10-02T12:28:21.610Z,99927.00
2018-10-02T12:30:51.850Z,99929.00
2018-10-02T12:33:22.091Z,99921.00
2018-10-02T12:35:52.313Z,99914.00
2018-10-02T12:38:22.630Z,99912.00
2018-10-02T12:40:53.006Z,99911.00
2018-10-02T12:43:23.271Z,99912.00
2018-10-02T12:45:53.492Z,99906.00
2018-10-02T12:48:23.821Z,99907.00
2018-10-02T12:50:54.066Z,99908.00
2018-10-02T12:53:24.330Z,99916.00
2018-10-02T12:55:54.554Z,99920.00
2018-10-02T12:58:24.801Z,99911.00
2018-10-02T13:00:55.050Z,99913.00
2018-10-02T13:03:25.332Z,99909.00
2018-10-02T13:05:55.574Z,99909.00
2018-10-02T13:08:25.830Z,99904.00
2018-10-02T13:10:56.066Z,99901.00
2018-10-02T13:13:26.334Z,99899.00
2018-10-02T13:15:56.562Z,99900.00
2018-10-02T13:18:26.788Z,99904.00
2018-10-02T13:20:57.072Z,99902.00
2018-10-02T13:23:27.353Z,99893.00
2018-10-02T13:25:57.578Z,99890.00
2018-10-02T13:28:27.826Z,99891.00
2018-10-02T13:30:58.078Z,99890.00
2018-10-02T13:33:28.343Z,99894.00
2018-10-02T13:35:58.570Z,99899.00
2018-10-02T13:38:28.823Z,99891.00
2018-10-02T13:40:59.082Z,99890.00
2018-10-02T13:43:29.425Z,99885.00
2018-10-02T13:45:59.682Z,99885.00
2018-10-02T13:48:29.958Z,99882.00
2018-10-02T13:51:00.165Z,99875.00
2018-10-02T13:53:30.415Z,99881.00
2018-10-02T13:56:00.668Z,99878.00
2018-10-02T13:58:30.929Z,99871.00
2018-10-02T14:01:01.186Z,99874.00
2018-10-02T14:03:31.633Z,99874.00
2018-10-02T14:06:01.878Z,99876.00
2018-10-02T14:08:32.183Z,99878.00
2018-10-02T14:11:02.468Z,99878.00
2018-10-02T14:13:32.741Z,99882.00
2018-10-02T14:16:02.989Z,99882.00
2018-10-02T14:18:33.269Z,99879.00
2018-10-02T14:21:03.537Z,99877.00
2018-10-02T14:23:33.812Z,99876.00
2018-10-02T14:26:04.057Z,99873.00
2018-10-02T14:28:34.308Z,99873.00
2018-10-02T14:31:04.549Z,99873.00
2018-10-02T14:33:34.899Z,99870.00
2018-10-02T14:36:05.879Z,99868.00
2018-10-02T14:38:36.136Z,99868.00
2018-10-02T14:41:06.469Z,99873.00
2018-10-02T14:43:37.065Z,99874.00
2018-10-02T14:46:07.394Z,99874.00
2018-10-02T14:48:37.653Z,99878.00
2018-10-02T14:51:07.898Z,99877.00
2018-10-02T14:53:38.169Z,99886.00
2018-10-02T14:56:08.517Z,99883.00
2018-10-02T14:58:38.776Z,99893.00
2018-10-02T15:01:09.301Z,99889.00
2018-10-02T15:03:39.535Z,99886.00
2018-10-02T15:06:09.763Z,99882.00
2018-10-02T15:08:40.034Z,99880.00
2018-10-02T15:11:10.511Z,99882.00
2018-10-02T15:13:40.786Z,99885.00
2018-10-02T15:16:11.025Z,99883.00
2018-10-02T15:18:41.285Z,99890.00
2018-10-02T15:21:11.561Z,99889.00
2018-10-02T15:23:42.034Z,99890.00
2018-10-02T15:26:12.345Z,99888.00
2018-10-02T15:28:42.607Z,99886.00
2018-10-02T15:31:13.000Z,99880.00
2018-10-02T15:33:43.256Z,99865.00
2018-10-02T15:36:13.537Z,99866.00
2018-10-02T15:38:43.761Z,99859.00
2018-10-02T15:41:13.993Z,99871.00
2018-10-02T15:43:45.130Z,99867.00
2018-10-02T15:46:15.362Z,99864.00
2018-10-02T15:48:45.637Z,99866.00
2018-10-02T15:51:15.882Z,99864.00
2018-10-02T15:53:46.130Z,99861.00
2018-10-02T15:56:16.362Z,99865.00
2018-10-02T15:58:46.614Z,99872.00
2018-10-02T16:01:17.009Z,99880.00
2018-10-02T16:03:47.229Z,99886.00
2018-10-02T16:06:17.490Z,99886.00
2018-10-02T16:08:47.725Z,99881.00
2018-10-02T16:11:18.126Z,99872.00
2018-10-02T16:13:48.299Z,99866.00
2018-10-02T16:16:18.537Z,99871.00
2018-10-02T16:18:48.773Z,99875.00
2018-10-02T16:21:19.046Z,99874.00
2018-10-02T16:23:49.631Z,99867.00
2018-10-02T16:26:19.895Z,99866.00
2018-10-02T16:28:50.139Z,99864.00
2018-10-02T16:31:20.406Z,99859.00
2018-10-02T16:33:50.677Z,99858.00
2018-10-02T16:36:20.929Z,99860.00
2018-10-02T16:38:51.186Z,99854.00
2018-10-02T16:41:21.441Z,99857.00
2018-10-02T16:43:51.664Z,99852.00
2018-10-02T16:46:22.282Z,99861.00
2018-10-02T16:48:52.503Z,99864.00
2018-10-02T16:51:22.801Z,99855.00
2018-10-02T16:53:53.039Z,99867.00
2018-10-02T16:56:23.505Z,99866.00
2018-10-02T16:58:53.801Z,99871.00
2018-10-02T17:01:24.054Z,99870.00
2018-10-02T17:03:54.305Z,99870.00
2018-10-02T17:06:24.602Z,99870.00
2018-10-02T17:08:54.941Z,99873.00
2018-10-02T17:11:25.253Z,99876.00
2018-10-02T17:13:55.809Z,99880.00
2018-10-02T17:16:26.074Z,99886.00
2018-10-02T17:18:56.348Z,99883.00
2018-10-02T17:21:26.650Z,99890.00
2018-10-02T17:23:57.046Z,99892.00
2018-10-02T17:26:27.406Z,99891.00
2018-10-02T17:28:57.682Z,99892.00
2018-10-02T17:31:27.898Z,99895.00
2018-10-02T17:34:01.765Z,99901.00
2018-10-02T17:36:32.631Z,99905.00
2018-10-02T17:39:02.929Z,99907.00
2018-10-02T17:41:33.176Z,99907.00
2018-10-02T17:44:03.771Z,99912.00
2018-10-02T17:46:34.470Z,99918.00
2018-10-02T17:49:08.655Z,99926.00
2018-10-02T17:51:38.972Z,99927.00
2018-10-02T17:54:09.190Z,99933.00
2018-10-02T17:56:39.530Z,99933.00
2018-10-02T17:59:09.769Z,99938.00
2018-10-02T18:01:40.110Z,99940.00
2018-10-02T18:04:10.554Z,99942.00
2018-10-02T18:06:40.819Z,99942.00
2018-10-02T18:09:11.109Z,99952.00
2018-10-02T18:11:41.433Z,99948.00
2018-10-02T18:14:11.765Z,99941.00
2018-10-02T18:16:42.009Z,99947.00
2018-10-02T18:19:12.230Z,99951.00
2018-10-02T18:21:42.600Z,99957.00
2018-10-02T18:24:13.245Z,99961.00
2018-10-02T18:26:43.542Z,99955.00
2018-10-02T18:29:14.926Z,99952.00
2018-10-02T18:31:45.278Z,99955.00
2018-10-02T18:34:15.739Z,99956.00
2018-10-02T18:36:46.042Z,99960.00
2018-10-02T18:39:16.334Z,99964.00
2018-10-02T18:41:46.799Z,99966.00
2018-10-02T18:44:17.085Z,99969.00
2018-10-02T18:46:47.386Z,99971.00
2018-10-02T18:49:17.720Z,99981.00
2018-10-02T18:51:48.041Z,99977.00
2018-10-02T18:54:18.321Z,99977.00
2018-10-02T18:56:48.639Z,99977.00
2018-10-02T18:59:18.978Z,99984.00
2018-10-02T19:01:49.386Z,99982.00
2018-10-02T19:04:19.654Z,99977.00
2018-10-02T19:06:49.963Z,99982.00
2018-10-02T19:09:20.248Z,99974.00
2018-10-02T19:11:55.651Z,99976.00
2018-10-02T19:14:25.941Z,99975.00
2018-10-02T19:16:56.250Z,99976.00
2018-10-02T19:19:31.834Z,99977.00
2018-10-02T19:22:02.137Z,99976.00
2018-10-02T19:24:32.478Z,99976.00
2018-10-02T19:27:02.786Z,99973.00
2018-10-02T19:29:33.072Z,99975.00
2018-10-02T19:32:13.541Z,99980.00
2018-10-02T19:34:43.814Z,99976.00
2018-10-02T19:37:19.376Z,99980.00
2018-10-02T19:39:49.621Z,99975.00
2018-10-02T19:42:19.930Z,99977.00
2018-10-02T19:44:50.214Z,99979.00
2018-10-02T19:47:27.194Z,99977.00
2018-10-02T19:49:57.430Z,99972.00
2018-10-02T19:52:27.719Z,99976.00
2018-10-02T19:54:57.998Z,99975.00
2018-10-02T19:57:28.290Z,99971.00
2018-10-02T19:59:58.603Z,99965.00
2018-10-02T20:02:28.914Z,99970.00
2018-10-02T20:04:59.174Z,99971.00
2018-10-02T20:07:29.585Z,99969.00
2018-10-02T20:09:59.785Z,99967.00
2018-10-02T20:12:30.081Z,99967.00
2018-10-02T20:15:00.354Z,99968.00
2018-10-02T20:17:30.666Z,99956.00
2018-10-02T20:20:00.970Z,99950.00
2018-10-02T20:22:31.274Z,99951.00
2018-10-02T20:25:01.578Z,99956.00
2018-10-02T20:27:31.874Z,99954.00
2018-10-02T20:30:02.170Z,99950.00
2018-10-02T20:32:32.490Z,99940.00
2018-10-02T20:35:02.773Z,99948.00
2018-10-02T20:37:33.075Z,99947.00
2018-10-02T20:40:03.384Z,99942.00
2018-10-02T20:42:33.686Z,99941.00
2018-10-02T20:45:03.989Z,99935.00
2018-10-02T20:47:34.281Z,99945.00
2018-10-02T20:50:04.566Z,99948.00
2018-10-02T20:52:34.819Z,99955.00
2018-10-02T20:55:05.124Z,99955.00
2018-10-02T20:57:35.410Z,99955.00
2018-10-02T21:00:05.738Z,99952.00
2018-10-02T21:02:36.015Z,99958.00
2018-10-02T21:05:06.326Z,99952.00
2018-10-02T21:07:36.606Z,99955.00
2018-10-02T21:10:06.920Z,99959.00
2018-10-02T21:12:37.277Z,99960.00
2018-10-02T21:15:07.577Z,99963.00
2018-10-02T21:17:37.868Z,99965.00
2018-10-02T21:20:08.560Z,99965.00
2018-10-02T21:22:38.830Z,99957.00
2018-10-02T21:25:09.142Z,99959.00
2018-10-02T21:27:39.423Z,99964.00
2018-10-02T21:30:09.722Z,99975.00
2018-10-02T21:32:40.023Z,99968.00
2018-10-02T21:35:10.335Z,99966.00
2018-10-02T21:37:40.821Z,99971.00
2018-10-02T21:40:11.259Z,99972.00
2018-10-02T21:42:41.478Z,99970.00
2018-10-02T21:45:11.782Z,99960.00
2018-10-02T21:47:42.070Z,99961.00
2018-10-02T21:50:12.372Z,99957.00
2018-10-02T21:52:42.639Z,99957.00
2018-10-02T21:55:12.979Z,99946.00
2018-10-02T21:57:43.254Z,99943.00
2018-10-02T22:00:13.638Z,99941.00
2018-10-02T22:02:43.943Z,99951.00
2018-10-02T22:05:14.246Z,99946.00
2018-10-02T22:07:44.523Z,99947.00
2018-10-02T22:10:15.037Z,99939.00
2018-10-02T22:12:45.318Z,99933.00
2018-10-02T22:15:15.633Z,99938.00
2018-10-02T22:17:45.983Z,99944.00
2018-10-02T22:20:16.245Z,99943.00
2018-10-02T22:22:46.482Z,99951.00
2018-10-02T22:25:16.707Z,99951.00
2018-10-02T22:27:46.929Z,99952.00
2018-10-02T22:30:17.169Z,99958.00
2018-10-02T22:32:47.482Z,99958.00
2018-10-02T22:35:17.713Z,99958.00
2018-10-02T22:37:47.950Z,99950.00
2018-10-02T22:40:18.209Z,99942.00
2018-10-02T22:42:48.423Z,99940.00
2018-10-02T22:45:18.684Z,99944.00
2018-10-02T22:47:48.910Z,99938.00
2018-10-02T22:50:19.160Z,99939.00
2018-10-02T22:52:49.390Z,99938.00
2018-10-02T22:55:19.638Z,99940.00
2018-10-02T22:57:49.922Z,99938.00
2018-10-02T23:00:20.186Z,99937.00
2018-10-02T23:02:50.613Z,99936.00
2018-10-02T23:05:20.857Z,99938.00
2018-10-02T23:07:51.066Z,99937.00
2018-10-02T23:10:21.309Z,99944.00
2018-10-02T23:12:51.530Z,99943.00
2018-10-02T23:15:21.771Z,99938.00
2018-10-02T23:17:51.985Z,99934.00
2018-10-02T23:20:22.270Z,99932.00
2018-10-02T23:22:52.491Z,99930.00
2018-10-02T23:25:22.740Z,99947.00
2018-10-02T23:27:53.259Z,99936.00
2018-10-02T23:30:23.502Z,99935.00
2018-10-02T23:32:53.854Z,99928.00
2018-10-02T23:35:24.101Z,99929.00
2018-10-02T23:37:54.693Z,99936.00
2018-10-02T23:40:24.974Z,99942.00
2018-10-02T23:42:55.201Z,99945.00
2018-10-02T23:45:25.442Z,99951.00
2018-10-02T23:47:55.694Z,99945.00
2018-10-02T23:50:25.906Z,99956.00
2018-10-02T23:52:56.172Z,99948.00
2018-10-02T23:55:26.382Z,99943.00
2018-10-02T23:57:56.639Z,99950.00
